createdAt,value
2024-01-17T00:02:07.969Z,84.91
2024-01-17T00:04:34.626Z,84.70
2024-01-17T00:07:01.433Z,83.97
2024-01-17T00:09:29.441Z,84.78
2024-01-17T00:11:55.912Z,84.46
2024-01-17T00:14:22.654Z,85.00
2024-01-17T00:16:49.291Z,84.13
2024-01-17T00:19:16.004Z,85.11
2024-01-17T00:21:43.433Z,83.87
2024-01-17T00:24:10.275Z,82.57
2024-01-17T00:26:38.299Z,82.96
2024-01-17T00:29:04.733Z,83.16
2024-01-17T00:31:31.329Z,83.79
2024-01-17T00:33:58.016Z,83.37
2024-01-17T00:36:24.868Z,83.93
2024-01-17T00:38:51.540Z,84.70
2024-01-17T00:41:18.369Z,84.98
2024-01-17T00:43:46.569Z,84.69
2024-01-17T00:46:13.277Z,85.72
2024-01-17T00:48:40.019Z,85.27
2024-01-17T00:51:06.827Z,85.00
2024-01-17T00:53:33.569Z,86.46
2024-01-17T00:56:00.357Z,85.02
2024-01-17T00:58:27.040Z,83.72
2024-01-17T01:00:55.042Z,85.48
2024-01-17T01:03:21.729Z,85.39
2024-01-17T01:05:48.498Z,85.59
2024-01-17T01:08:15.147Z,85.58
2024-01-17T01:10:42.447Z,85.14
2024-01-17T01:13:09.052Z,84.82
2024-01-17T01:15:35.649Z,85.28
2024-01-17T01:18:04.109Z,84.37
2024-01-17T01:20:30.950Z,85.35
2024-01-17T01:22:57.647Z,84.04
2024-01-17T01:25:24.224Z,83.97
2024-01-17T01:27:50.833Z,84.63
2024-01-17T01:30:17.554Z,84.12
2024-01-17T01:32:44.352Z,84.53
2024-01-17T01:35:12.367Z,84.33
2024-01-17T01:37:38.998Z,84.21
2024-01-17T01:40:08.509Z,82.81
2024-01-17T01:42:35.575Z,85.31
2024-01-17T01:45:02.473Z,85.82
2024-01-17T01:47:29.235Z,84.73
2024-01-17T01:49:55.872Z,83.20
2024-01-17T01:52:24.024Z,83.56
2024-01-17T01:54:50.666Z,83.86
2024-01-17T01:57:17.759Z,84.29
2024-01-17T01:59:46.863Z,86.01
2024-01-17T02:02:13.765Z,85.17
2024-01-17T02:04:40.789Z,83.97
2024-01-17T02:07:08.866Z,84.42
2024-01-17T02:09:36.958Z,84.55
2024-01-17T02:12:04.358Z,83.63
2024-01-17T02:14:31.027Z,82.27
2024-01-17T02:16:57.660Z,83.15
2024-01-17T02:19:24.362Z,84.89
2024-01-17T02:21:50.990Z,84.75
2024-01-17T02:24:22.074Z,83.71
2024-01-17T02:26:48.788Z,82.69
2024-01-17T02:29:15.466Z,84.87
2024-01-17T02:31:42.859Z,85.26
2024-01-17T02:34:09.843Z,84.79
2024-01-17T02:36:36.589Z,84.42
2024-01-17T02:39:03.296Z,85.67
2024-01-17T02:41:31.302Z,85.64
2024-01-17T02:43:57.740Z,84.09
2024-01-17T02:46:27.484Z,85.88
2024-01-17T02:48:54.145Z,84.54
2024-01-17T02:51:20.897Z,85.98
2024-01-17T02:53:47.542Z,84.99
2024-01-17T02:56:15.431Z,85.70
2024-01-17T02:58:43.243Z,84.80
2024-01-17T03:01:10.033Z,83.94
2024-01-17T03:03:36.806Z,83.54
2024-01-17T03:06:03.669Z,84.45
2024-01-17T03:08:30.525Z,83.45
2024-01-17T03:10:57.224Z,84.39
2024-01-17T03:13:23.797Z,83.60
2024-01-17T03:15:51.724Z,82.31
2024-01-17T03:18:18.842Z,83.84
2024-01-17T03:20:45.634Z,82.73
2024-01-17T03:23:12.233Z,84.40
2024-01-17T03:25:38.823Z,81.97
2024-01-17T03:28:05.683Z,84.00
2024-01-17T03:30:33.885Z,83.70
2024-01-17T03:33:01.981Z,83.44
2024-01-17T03:35:28.796Z,84.48
2024-01-17T03:37:56.582Z,84.90
2024-01-17T03:40:23.247Z,83.46
2024-01-17T03:42:49.828Z,84.72
2024-01-17T03:45:16.646Z,83.28
2024-01-17T03:47:43.329Z,84.68
2024-01-17T03:50:11.409Z,84.55
2024-01-17T03:52:38.024Z,83.09
2024-01-17T03:55:05.251Z,83.96
2024-01-17T03:57:32.918Z,84.63
2024-01-17T03:59:59.640Z,83.95
2024-01-17T04:02:26.655Z,84.31
2024-01-17T04:04:53.364Z,84.52
2024-01-17T04:07:23.448Z,83.17
2024-01-17T04:09:50.241Z,84.25
2024-01-17T04:12:16.926Z,82.67
2024-01-17T04:14:43.752Z,83.84
2024-01-17T04:17:11.589Z,83.93
2024-01-17T04:19:38.260Z,85.24
2024-01-17T04:22:05.031Z,84.12
2024-01-17T04:24:32.964Z,84.13
2024-01-17T04:26:59.414Z,84.26
2024-01-17T04:29:26.046Z,83.96
2024-01-17T04:31:54.130Z,83.75
2024-01-17T04:34:21.105Z,82.72
2024-01-17T04:36:48.114Z,83.33
2024-01-17T04:39:16.206Z,82.29
2024-01-17T04:41:44.535Z,83.36
2024-01-17T04:44:11.345Z,82.53
2024-01-17T04:46:38.254Z,82.66
2024-01-17T04:49:05.209Z,84.19
2024-01-17T04:51:31.914Z,83.57
2024-01-17T04:53:59.683Z,83.17
2024-01-17T04:56:27.002Z,83.14
2024-01-17T04:58:55.212Z,84.13
2024-01-17T05:01:21.898Z,83.86
2024-01-17T05:03:48.656Z,82.02
2024-01-17T05:06:15.437Z,84.58
2024-01-17T05:08:42.380Z,82.88
2024-01-17T05:11:09.012Z,85.47
2024-01-17T05:13:35.697Z,84.17
2024-01-17T05:16:04.006Z,84.34
2024-01-17T05:18:31.401Z,83.67
2024-01-17T05:20:58.273Z,83.55
2024-01-17T05:23:24.874Z,84.72
2024-01-17T05:25:51.556Z,83.58
2024-01-17T05:28:18.122Z,84.60
2024-01-17T05:30:44.811Z,82.93
2024-01-17T05:33:12.876Z,83.82
2024-01-17T05:35:42.254Z,82.21
2024-01-17T05:38:08.853Z,83.25
2024-01-17T05:40:35.482Z,83.18
2024-01-17T05:43:02.525Z,82.81
2024-01-17T05:45:29.159Z,84.58
2024-01-17T05:47:55.943Z,84.31
2024-01-17T05:50:23.997Z,83.32
2024-01-17T05:52:50.699Z,83.78
2024-01-17T05:55:17.466Z,82.24
2024-01-17T05:57:44.334Z,83.47
2024-01-17T06:00:12.514Z,83.95
2024-01-17T06:02:41.222Z,82.24
2024-01-17T06:05:11.605Z,84.00
2024-01-17T06:07:43.888Z,83.53
2024-01-17T06:10:14.165Z,82.94
2024-01-17T06:12:41.128Z,84.33
2024-01-17T06:15:08.836Z,82.49
2024-01-17T06:17:35.608Z,83.29
2024-01-17T06:20:02.406Z,83.72
2024-01-17T06:22:29.051Z,83.89
2024-01-17T06:24:57.614Z,82.45
2024-01-17T06:27:24.509Z,83.20
2024-01-17T06:29:52.497Z,81.96
2024-01-17T06:32:19.507Z,83.43
2024-01-17T06:34:46.133Z,84.10
2024-01-17T06:37:12.888Z,83.69
2024-01-17T06:39:40.026Z,83.45
2024-01-17T06:42:08.230Z,82.98
2024-01-17T06:44:35.052Z,83.17
2024-01-17T06:47:01.712Z,82.18
2024-01-17T06:49:28.504Z,83.94
2024-01-17T06:51:56.131Z,82.03
2024-01-17T06:54:22.764Z,83.08
2024-01-17T06:56:49.509Z,81.97
2024-01-17T06:59:20.163Z,81.76
2024-01-17T07:01:46.970Z,81.64
2024-01-17T07:04:13.805Z,82.77
2024-01-17T07:06:40.580Z,80.96
2024-01-17T07:09:09.461Z,81.88
2024-01-17T07:11:36.639Z,81.67
2024-01-17T07:14:04.230Z,82.25
2024-01-17T07:16:32.402Z,83.08
2024-01-17T07:18:59.925Z,83.93
2024-01-17T07:21:26.903Z,84.07
2024-01-17T07:23:54.080Z,82.49
2024-01-17T07:26:20.726Z,83.96
2024-01-17T07:28:47.303Z,84.13
2024-01-17T07:31:13.950Z,81.64
2024-01-17T07:33:42.044Z,83.47
2024-01-17T07:36:09.071Z,82.08
2024-01-17T07:38:35.817Z,82.60
2024-01-17T07:41:02.997Z,81.67
2024-01-17T07:43:29.653Z,82.98
2024-01-17T07:45:56.899Z,82.90
2024-01-17T07:48:23.697Z,82.63
2024-01-17T07:50:51.897Z,82.10
2024-01-17T07:53:18.557Z,84.03
2024-01-17T07:55:45.112Z,81.73
2024-01-17T07:58:13.054Z,82.66
2024-01-17T08:00:40.016Z,82.92
2024-01-17T08:03:08.262Z,82.52
2024-01-17T08:05:35.302Z,83.30
2024-01-17T08:08:04.068Z,81.78
2024-01-17T08:10:31.341Z,81.71
2024-01-17T08:12:57.908Z,81.58
2024-01-17T08:15:24.492Z,81.55
2024-01-17T08:17:51.691Z,81.36
2024-01-17T08:20:18.546Z,82.95
2024-01-17T08:22:45.433Z,81.09
2024-01-17T08:25:14.159Z,80.39
2024-01-17T08:27:41.117Z,81.73
2024-01-17T08:30:12.002Z,80.97
2024-01-17T08:32:39.264Z,80.84
2024-01-17T08:35:08.027Z,80.00
2024-01-17T08:37:35.707Z,81.19
2024-01-17T08:40:02.291Z,81.23
2024-01-17T08:42:30.236Z,81.35
2024-01-17T08:44:56.919Z,81.25
2024-01-17T08:47:23.642Z,80.46
2024-01-17T08:49:50.921Z,80.96
2024-01-17T08:52:17.564Z,81.48
2024-01-17T08:54:44.110Z,81.02
2024-01-17T08:57:11.031Z,80.55
2024-01-17T08:59:39.128Z,81.58
2024-01-17T09:02:05.878Z,81.69
2024-01-17T09:04:33.600Z,80.58
2024-01-17T09:07:00.499Z,80.93
2024-01-17T09:09:27.458Z,81.51
2024-01-17T09:11:56.973Z,80.31
2024-01-17T09:14:25.664Z,80.25
2024-01-17T09:16:54.384Z,80.58
2024-01-17T09:19:24.742Z,80.46
2024-01-17T09:21:53.906Z,80.65
2024-01-17T09:24:22.032Z,80.60
2024-01-17T09:26:52.678Z,80.18
2024-01-17T09:29:19.932Z,78.79
2024-01-17T09:31:47.059Z,77.88
2024-01-17T09:34:15.106Z,77.64
2024-01-17T09:36:41.809Z,77.55
2024-01-17T09:39:08.495Z,77.58
2024-01-17T09:41:35.306Z,77.46
2024-01-17T09:44:02.006Z,77.66
2024-01-17T09:46:29.886Z,77.48
2024-01-17T09:48:56.705Z,78.23
2024-01-17T09:51:26.826Z,78.15
2024-01-17T09:53:54.672Z,78.11
2024-01-17T09:56:23.086Z,78.54
2024-01-17T09:58:52.076Z,78.50
2024-01-17T10:01:20.860Z,78.15
2024-01-17T10:03:47.866Z,79.21
2024-01-17T10:06:16.711Z,78.21
2024-01-17T10:08:45.221Z,79.05
2024-01-17T10:11:11.827Z,78.56
2024-01-17T10:13:38.589Z,77.96
2024-01-17T10:16:05.775Z,77.64
2024-01-17T10:18:32.652Z,77.92
2024-01-17T10:20:59.633Z,78.62
2024-01-17T10:23:27.693Z,79.29
2024-01-17T10:25:55.985Z,79.41
2024-01-17T10:28:23.210Z,77.95
2024-01-17T10:30:49.782Z,78.11
2024-01-17T10:33:16.534Z,77.85
2024-01-17T10:35:43.292Z,77.55
2024-01-17T10:38:09.931Z,79.74
2024-01-17T10:40:36.566Z,77.01
2024-01-17T10:43:11.356Z,77.17
2024-01-17T10:45:40.766Z,77.99
2024-01-17T10:48:07.954Z,75.46
2024-01-17T10:50:34.762Z,75.77
2024-01-17T10:53:04.525Z,76.50
2024-01-17T10:55:34.504Z,76.30
2024-01-17T10:58:01.673Z,78.00
2024-01-17T11:00:33.256Z,77.80
2024-01-17T11:03:01.486Z,78.09
2024-01-17T11:05:33.362Z,77.19
2024-01-17T11:08:00.933Z,76.10
2024-01-17T11:10:28.199Z,76.72
2024-01-17T11:12:56.239Z,76.70
2024-01-17T11:15:23.811Z,74.90
2024-01-17T11:17:54.891Z,76.07
2024-01-17T11:20:21.510Z,75.61
2024-01-17T11:22:50.562Z,77.08
2024-01-17T11:25:21.986Z,78.05
2024-01-17T11:27:52.104Z,78.22
2024-01-17T11:30:30.038Z,77.94
2024-01-17T11:33:05.611Z,78.98
2024-01-17T11:35:41.519Z,79.52
2024-01-17T11:38:12.043Z,80.54
2024-01-17T11:40:38.817Z,80.82
2024-01-17T11:43:05.901Z,79.22
2024-01-17T11:45:32.634Z,79.71
2024-01-17T11:48:12.447Z,81.66
2024-01-17T11:50:39.443Z,81.26
2024-01-17T11:53:06.218Z,81.50
2024-01-17T11:55:33.602Z,81.35
2024-01-17T11:58:01.771Z,81.98
2024-01-17T12:00:28.734Z,83.14
2024-01-17T12:03:00.834Z,82.22
2024-01-17T12:05:28.975Z,81.88
2024-01-17T12:07:55.824Z,82.50
2024-01-17T12:10:22.644Z,82.11
2024-01-17T12:12:49.195Z,84.46
2024-01-17T12:15:15.999Z,83.60
2024-01-17T12:17:45.308Z,84.24
2024-01-17T12:20:12.899Z,83.94
2024-01-17T12:22:41.031Z,84.39
2024-01-17T12:25:09.353Z,83.41
2024-01-17T12:27:35.916Z,83.54
2024-01-17T12:30:02.845Z,83.67
2024-01-17T12:32:29.580Z,84.15
2024-01-17T12:34:56.276Z,84.97
2024-01-17T12:37:23.046Z,83.54
2024-01-17T12:39:50.994Z,83.61
2024-01-17T12:42:18.079Z,84.95
2024-01-17T12:44:45.798Z,85.58
2024-01-17T12:47:12.419Z,84.41
2024-01-17T12:49:39.050Z,84.45
2024-01-17T12:52:05.829Z,85.25
2024-01-17T12:54:32.521Z,85.04
2024-01-17T12:57:00.532Z,85.37
2024-01-17T12:59:27.118Z,87.17
2024-01-17T13:01:58.702Z,85.12
2024-01-17T13:04:25.321Z,86.05
2024-01-17T13:06:53.093Z,85.37
2024-01-17T13:09:22.750Z,84.18
2024-01-17T13:11:51.247Z,85.40
2024-01-17T13:14:19.877Z,85.56
2024-01-17T13:16:46.960Z,85.15
2024-01-17T13:19:15.363Z,84.87
2024-01-17T13:21:42.421Z,85.13
2024-01-17T13:24:09.861Z,83.90
2024-01-17T13:26:37.304Z,83.02
2024-01-17T13:29:05.673Z,83.73
2024-01-17T13:31:34.683Z,84.22
2024-01-17T13:34:04.651Z,85.79
2024-01-17T13:36:32.043Z,86.44
2024-01-17T13:38:58.861Z,84.47
2024-01-17T13:41:27.221Z,84.91
2024-01-17T13:43:54.423Z,84.34
2024-01-17T13:46:21.120Z,85.79
2024-01-17T13:48:49.733Z,83.87
2024-01-17T13:51:18.184Z,85.57
2024-01-17T13:53:45.162Z,85.85
2024-01-17T13:56:11.978Z,86.26
2024-01-17T13:58:38.956Z,86.13
2024-01-17T14:01:06.985Z,86.10
2024-01-17T14:03:34.804Z,85.50
2024-01-17T14:06:03.258Z,86.02
2024-01-17T14:08:30.678Z,85.96
2024-01-17T14:10:57.756Z,85.47
2024-01-17T14:13:24.470Z,85.03
2024-01-17T14:15:51.274Z,86.78
2024-01-17T14:18:18.684Z,86.36
2024-01-17T14:20:45.487Z,86.91
2024-01-17T14:23:13.949Z,85.73
2024-01-17T14:25:40.521Z,85.75
2024-01-17T14:28:08.804Z,87.48
2024-01-17T14:30:35.723Z,86.80
2024-01-17T14:33:05.392Z,86.17
2024-01-17T14:35:35.150Z,86.89
2024-01-17T14:38:03.935Z,87.70
2024-01-17T14:40:31.872Z,87.86
2024-01-17T14:42:59.133Z,87.85
2024-01-17T14:45:25.862Z,87.01
2024-01-17T14:47:52.587Z,86.93
2024-01-17T14:50:19.328Z,86.02
2024-01-17T14:52:46.784Z,86.85
2024-01-17T14:55:13.757Z,86.04
2024-01-17T14:57:41.947Z,86.51
2024-01-17T15:00:19.187Z,85.87
2024-01-17T15:02:47.293Z,86.90
2024-01-17T15:05:14.441Z,88.48
2024-01-17T15:07:42.059Z,86.83
2024-01-17T15:10:11.805Z,86.92
2024-01-17T15:12:38.479Z,85.65
2024-01-17T15:15:08.561Z,87.13
2024-01-17T15:17:36.188Z,87.08
2024-01-17T15:20:03.158Z,86.36
2024-01-17T15:22:31.441Z,87.01
2024-01-17T15:24:58.480Z,86.35
2024-01-17T15:27:25.201Z,87.52
2024-01-17T15:29:52.841Z,87.38
2024-01-17T15:32:21.019Z,86.25
2024-01-17T15:34:50.984Z,86.96
2024-01-17T15:37:18.329Z,85.86
2024-01-17T15:39:49.489Z,85.98
2024-01-17T15:42:17.268Z,87.25
2024-01-17T15:44:44.084Z,86.47
2024-01-17T15:47:10.750Z,87.10
2024-01-17T15:49:38.739Z,86.19
2024-01-17T15:52:05.931Z,87.11
2024-01-17T15:54:32.604Z,86.66
2024-01-17T15:56:59.268Z,88.76
2024-01-17T15:59:25.927Z,87.78
2024-01-17T16:01:52.997Z,88.16
2024-01-17T16:04:19.596Z,87.16
2024-01-17T16:06:47.664Z,87.38
2024-01-17T16:09:14.859Z,86.70
2024-01-17T16:11:41.636Z,86.81
2024-01-17T16:14:08.368Z,87.58
2024-01-17T16:16:35.086Z,88.01
2024-01-17T16:19:02.685Z,87.80
2024-01-17T16:21:29.892Z,86.83
2024-01-17T16:23:59.886Z,86.67
2024-01-17T16:26:26.635Z,88.25
2024-01-17T16:28:53.260Z,86.59
2024-01-17T16:31:19.816Z,86.80
2024-01-17T16:33:46.641Z,86.34
2024-01-17T16:36:14.480Z,85.96
2024-01-17T16:38:41.779Z,86.64
2024-01-17T16:41:11.057Z,86.85
2024-01-17T16:43:37.967Z,86.00
2024-01-17T16:46:05.213Z,84.43
2024-01-17T16:48:34.125Z,84.86
2024-01-17T16:51:03.468Z,85.56
2024-01-17T16:53:31.447Z,85.83
2024-01-17T16:55:58.084Z,84.46
2024-01-17T16:58:26.068Z,84.39
2024-01-17T17:00:55.648Z,84.85
2024-01-17T17:03:23.415Z,85.67
2024-01-17T17:05:51.696Z,85.30
2024-01-17T17:08:20.360Z,86.15
2024-01-17T17:10:46.937Z,86.50
2024-01-17T17:13:13.560Z,85.68
2024-01-17T17:15:41.760Z,85.45
2024-01-17T17:18:12.818Z,85.25
2024-01-17T17:20:40.424Z,85.69
2024-01-17T17:23:07.471Z,86.11
2024-01-17T17:25:34.300Z,86.76
2024-01-17T17:28:00.849Z,86.24
2024-01-17T17:30:27.552Z,86.85
2024-01-17T17:32:55.624Z,88.56
2024-01-17T17:35:22.272Z,88.22
2024-01-17T17:37:48.944Z,88.94
2024-01-17T17:40:15.767Z,87.21
2024-01-17T17:42:42.575Z,85.83
2024-01-17T17:45:10.548Z,86.86
2024-01-17T17:47:37.297Z,85.56
2024-01-17T17:50:11.998Z,86.11
2024-01-17T17:52:38.652Z,86.71
2024-01-17T17:55:06.271Z,87.31
2024-01-17T17:57:32.923Z,85.40
2024-01-17T17:59:59.990Z,86.38
2024-01-17T18:02:26.812Z,86.58
2024-01-17T18:04:53.410Z,86.17
2024-01-17T18:07:21.319Z,85.54
2024-01-17T18:09:49.600Z,86.34
2024-01-17T18:12:17.249Z,85.72
2024-01-17T18:14:43.947Z,85.08
2024-01-17T18:17:13.017Z,85.98
2024-01-17T18:19:39.704Z,86.78
2024-01-17T18:22:06.329Z,86.41
2024-01-17T18:24:34.389Z,86.61
2024-01-17T18:27:01.057Z,86.51
2024-01-17T18:29:28.032Z,84.89
2024-01-17T18:31:54.663Z,84.85
2024-01-17T18:34:23.875Z,86.26
2024-01-17T18:36:50.583Z,84.83
2024-01-17T18:39:18.862Z,86.31
2024-01-17T18:41:46.889Z,85.30
2024-01-17T18:44:13.427Z,86.14
2024-01-17T18:46:41.855Z,85.10
2024-01-17T18:49:08.667Z,84.95
2024-01-17T18:51:35.716Z,84.88
2024-01-17T18:54:02.384Z,85.48
2024-01-17T18:56:31.248Z,85.86
2024-01-17T18:59:00.218Z,84.30
2024-01-17T19:01:32.317Z,85.74
2024-01-17T19:03:59.031Z,84.94
2024-01-17T19:06:28.451Z,86.23
2024-01-17T19:08:55.521Z,85.72
2024-01-17T19:11:22.315Z,85.81
2024-01-17T19:13:49.119Z,86.73
2024-01-17T19:16:17.129Z,86.23
2024-01-17T19:18:44.007Z,86.20
2024-01-17T19:21:10.847Z,85.82
2024-01-17T19:23:38.672Z,84.90
2024-01-17T19:26:07.852Z,85.87
2024-01-17T19:28:34.440Z,84.29
2024-01-17T19:31:01.061Z,86.15
2024-01-17T19:33:32.328Z,86.27
2024-01-17T19:35:59.007Z,86.15
2024-01-17T19:38:26.516Z,86.56
2024-01-17T19:40:53.329Z,85.91
2024-01-17T19:43:19.997Z,85.16
2024-01-17T19:45:46.630Z,86.32
2024-01-17T19:48:13.488Z,86.54
2024-01-17T19:50:43.823Z,87.12
2024-01-17T19:53:10.462Z,86.61
2024-01-17T19:55:37.046Z,86.51
2024-01-17T19:58:03.958Z,86.40
2024-01-17T20:00:31.889Z,84.52
2024-01-17T20:02:59.032Z,85.16
2024-01-17T20:05:28.634Z,86.20
2024-01-17T20:07:56.549Z,87.59
2024-01-17T20:10:23.192Z,85.84
2024-01-17T20:12:50.341Z,85.08
2024-01-17T20:15:18.716Z,84.88
2024-01-17T20:17:45.446Z,84.79
2024-01-17T20:20:12.439Z,86.63
2024-01-17T20:22:39.013Z,86.55
2024-01-17T20:25:14.613Z,85.45
2024-01-17T20:27:41.753Z,85.97
2024-01-17T20:30:09.394Z,85.68
2024-01-17T20:32:36.854Z,84.72
2024-01-17T20:35:04.049Z,85.52
2024-01-17T20:37:30.748Z,85.53
2024-01-17T20:39:57.301Z,84.52
2024-01-17T20:42:25.364Z,84.09
2024-01-17T20:44:52.045Z,83.92
2024-01-17T20:47:18.689Z,85.00
2024-01-17T20:49:46.429Z,85.24
2024-01-17T20:52:13.538Z,85.48
2024-01-17T20:54:42.954Z,83.98
2024-01-17T20:57:12.288Z,85.07
2024-01-17T20:59:40.672Z,83.60
2024-01-17T21:02:07.201Z,84.37
2024-01-17T21:04:33.808Z,84.30
2024-01-17T21:07:00.731Z,83.10
2024-01-17T21:09:27.573Z,83.88
2024-01-17T21:11:54.748Z,84.00
2024-01-17T21:14:21.494Z,83.48
2024-01-17T21:16:49.369Z,84.63
2024-01-17T21:19:15.985Z,83.32
2024-01-17T21:21:42.913Z,84.72
2024-01-17T21:24:09.811Z,84.86
2024-01-17T21:26:39.681Z,83.39
2024-01-17T21:29:07.349Z,83.71
2024-01-17T21:31:37.518Z,84.05
2024-01-17T21:34:07.982Z,85.82
2024-01-17T21:36:35.416Z,85.29
2024-01-17T21:39:04.249Z,85.73
2024-01-17T21:41:31.412Z,85.80
2024-01-17T21:43:57.994Z,85.24
2024-01-17T21:46:25.019Z,85.21
2024-01-17T21:48:51.858Z,85.57
2024-01-17T21:51:20.279Z,85.47
2024-01-17T21:53:47.951Z,86.04
2024-01-17T21:56:14.840Z,86.44
2024-01-17T21:58:41.581Z,87.21
2024-01-17T22:01:09.360Z,86.43
2024-01-17T22:03:37.382Z,86.56
2024-01-17T22:06:05.025Z,85.35
2024-01-17T22:08:44.320Z,86.55
2024-01-17T22:11:18.889Z,85.96
2024-01-17T22:13:45.472Z,86.16
2024-01-17T22:16:12.178Z,86.35
2024-01-17T22:18:38.896Z,85.98
2024-01-17T22:21:05.852Z,84.83
2024-01-17T22:23:33.928Z,85.15
2024-01-17T22:26:00.544Z,84.20
2024-01-17T22:28:27.090Z,83.78
2024-01-17T22:30:53.658Z,85.52
2024-01-17T22:33:20.369Z,85.01
2024-01-17T22:35:47.121Z,84.24
2024-01-17T22:38:13.696Z,84.37
2024-01-17T22:40:42.149Z,82.58
2024-01-17T22:43:08.790Z,82.99
2024-01-17T22:45:35.548Z,84.18
2024-01-17T22:48:04.256Z,83.53
2024-01-17T22:50:33.212Z,84.52
2024-01-17T22:53:03.113Z,83.88
2024-01-17T22:55:30.612Z,84.24
2024-01-17T22:57:58.645Z,83.78
2024-01-17T23:00:27.092Z,84.64
2024-01-17T23:02:54.273Z,83.83
2024-01-17T23:05:22.473Z,83.33
2024-01-17T23:07:57.454Z,84.82
2024-01-17T23:10:32.251Z,84.58
2024-01-17T23:13:00.355Z,83.20
2024-01-17T23:15:27.233Z,84.38
2024-01-17T23:17:54.157Z,82.85
2024-01-17T23:20:20.995Z,83.97
2024-01-17T23:22:47.662Z,84.30
2024-01-17T23:25:14.341Z,84.99
2024-01-17T23:27:40.936Z,84.59
2024-01-17T23:30:09.903Z,82.65
2024-01-17T23:32:36.653Z,83.13
2024-01-17T23:35:03.490Z,83.94
2024-01-17T23:37:30.156Z,83.25
2024-01-17T23:39:56.683Z,84.00
2024-01-17T23:42:23.287Z,83.11
2024-01-17T23:44:50.116Z,84.17
2024-01-17T23:47:18.125Z,83.26
2024-01-17T23:49:44.820Z,83.54
2024-01-17T23:52:11.447Z,83.94
2024-01-17T23:54:38.073Z,83.20
2024-01-17T23:57:05.310Z,84.12
2024-01-17T23:59:31.924Z,82.74
